Time;durP1;ratioP1;P1;durP2;ratioP2;P2;SDS_P1;SDS_P2;PMS_P1;PMS_P2;Temp;Humidity;BMP_temperature;BMP_pressure;BME280_temperature;BME280_humidity;BME280_pressure;Samples;Min_cycle;Max_cycle;Signal;HPM_P1;HPM_P2
2021/12/09 00:00:34;;;;;;;9.37;6.03;;;;;;;0.71;76.88;96383.59;6371634;27;20310;-68
2021/12/09 00:03:40;;;;;;;10.83;6.27;;;;;;;0.76;76.62;96364.31;6371394;27;20196;-69
2021/12/09 00:06:44;;;;;;;7.83;5.67;;;;;;;0.67;76.97;96389.94;6353080;27;20689;-70
2021/12/09 00:09:46;;;;;;;8.50;6.27;;;;;;;0.65;77.33;96394.38;6375471;27;20680;-69
2021/12/09 00:12:48;;;;;;;10.30;6.93;;;;;;;0.62;77.47;96401.50;6352902;27;20299;-69
2021/12/09 00:15:50;;;;;;;10.93;6.53;;;;;;;0.58;77.71;96410.44;6352901;27;20278;-70
2021/12/09 00:18:52;;;;;;;8.23;6.03;;;;;;;0.55;77.96;96415.78;6370990;27;20723;-69
2021/12/09 00:21:56;;;;;;;9.37;6.40;;;;;;;0.54;77.58;96420.16;6371306;27;20177;-69
2021/12/09 00:24:58;;;;;;;12.33;6.73;;;;;;;0.51;77.78;96420.31;6371426;27;20241;-69
2021/12/09 00:28:00;;;;;;;10.43;7.30;;;;;;;0.50;77.89;96410.88;6371161;27;20322;-69
2021/12/09 00:31:03;;;;;;;11.10;7.73;;;;;;;0.49;78.66;96388.47;6370939;27;20205;-68
2021/12/09 00:34:05;;;;;;;11.27;7.37;;;;;;;0.48;78.36;96380.78;6370847;27;20226;-69
2021/12/09 00:40:19;;;;;;;10.07;7.17;;;;;;;0.46;78.34;96403.38;6379185;27;20188;-68
2021/12/09 00:43:22;;;;;;;10.67;7.00;;;;;;;0.49;78.37;96408.41;6370496;27;20264;-69
2021/12/09 00:46:24;;;;;;;11.03;7.60;;;;;;;0.48;78.42;96394.59;6370829;27;20189;-68
2021/12/09 00:49:30;;;;;;;10.97;7.70;;;;;;;0.47;78.27;96402.47;6352128;27;20549;-68
2021/12/09 00:52:32;;;;;;;10.30;7.77;;;;;;;0.47;78.27;96399.84;6352323;27;20203;-69
2021/12/09 00:55:34;;;;;;;10.60;7.93;;;;;;;0.44;78.20;96400.03;6352395;27;20245;-68
2021/12/09 00:58:37;;;;;;;12.83;9.27;;;;;;;0.40;78.25;96401.16;6326564;28;20200;-69
2021/12/09 01:01:40;;;;;;;16.70;10.90;;;;;;;0.27;78.35;96396.72;6367219;27;20195;-69
2021/12/09 01:04:45;;;;;;;17.67;11.93;;;;;;;0.23;78.60;96395.22;6370356;27;20188;-69
2021/12/09 01:07:48;;;;;;;17.57;11.37;;;;;;;0.17;79.11;96418.09;6360030;27;20192;-68
2021/12/09 01:10:50;;;;;;;16.77;11.63;;;;;;;0.16;78.55;96395.69;6382336;27;20218;-69
2021/12/09 01:13:52;;;;;;;18.00;11.87;;;;;;;0.12;79.00;96407.16;6343250;28;20634;-68
2021/12/09 01:16:54;;;;;;;20.30;13.20;;;;;;;0.06;79.01;96416.13;6344512;28;20815;-68
2021/12/09 01:19:56;;;;;;;19.93;14.33;;;;;;;0.05;79.33;96422.25;6343861;28;20193;-69
2021/12/09 01:22:58;;;;;;;21.80;14.73;;;;;;;0.00;79.99;96419.91;6342996;28;20216;-68
2021/12/09 01:26:03;;;;;;;21.00;14.60;;;;;;;-0.01;79.89;96426.06;6342772;28;20280;-68
2021/12/09 01:29:14;;;;;;;21.80;14.50;;;;;;;-0.06;80.05;96427.22;6344050;28;20656;-69
2021/12/09 01:32:24;;;;;;;25.00;16.07;;;;;;;-0.12;81.07;96432.78;6343800;28;20205;-69
2021/12/09 01:35:30;;;;;;;22.77;15.90;;;;;;;-0.22;81.00;96431.63;6343053;28;20753;-69
2021/12/09 01:38:33;;;;;;;25.50;16.47;;;;;;;-0.26;81.75;96430.97;6343981;28;20650;-69
2021/12/09 01:41:36;;;;;;;25.37;17.00;;;;;;;-0.28;81.61;96425.03;6333555;28;20728;-69
2021/12/09 01:44:39;;;;;;;26.27;17.17;;;;;;;-0.32;82.38;96420.13;6318918;28;20190;-68
2021/12/09 01:47:41;;;;;;;24.57;16.83;;;;;;;-0.37;82.52;96422.97;6317248;28;20201;-68
2021/12/09 01:50:44;;;;;;;26.67;18.00;;;;;;;-0.42;83.03;96425.00;6318223;28;20235;-70
2021/12/09 01:53:47;;;;;;;27.23;17.63;;;;;;;-0.45;83.50;96428.59;6318608;28;20194;-68
2021/12/09 01:56:49;;;;;;;25.30;16.93;;;;;;;-0.46;83.37;96428.69;6318440;28;20200;-68
2021/12/09 01:59:51;;;;;;;27.93;17.97;;;;;;;-0.48;84.10;96431.34;6318151;28;20331;-69
2021/12/09 02:02:54;;;;;;;26.07;17.23;;;;;;;-0.51;84.15;96423.78;6318901;28;20741;-69
2021/12/09 02:06:01;;;;;;;22.97;15.83;;;;;;;-0.54;84.87;96418.75;6318108;28;20194;-68
2021/12/09 02:09:03;;;;;;;23.93;17.17;;;;;;;-0.51;84.89;96415.16;6337275;28;20200;-70
2021/12/09 02:12:06;;;;;;;25.50;17.17;;;;;;;-0.55;84.89;96409.31;6344477;28;20215;-70
2021/12/09 02:15:09;;;;;;;23.10;15.60;;;;;;;-0.54;85.16;96407.56;6350549;28;20193;-69
2021/12/09 02:18:13;;;;;;;23.47;14.93;;;;;;;-0.55;84.94;96398.94;6369013;28;20765;-69
2021/12/09 02:21:19;;;;;;;23.00;15.90;;;;;;;-0.55;85.19;96396.34;6350131;28;20195;-69
2021/12/09 02:24:21;;;;;;;23.80;15.03;;;;;;;-0.55;84.95;96403.28;6368724;28;20679;-68
2021/12/09 02:27:25;;;;;;;23.17;15.37;;;;;;;-0.55;85.20;96401.53;6368913;28;20233;-69
2021/12/09 02:30:27;;;;;;;23.47;15.53;;;;;;;-0.57;85.31;96399.94;6368367;28;20240;-68
2021/12/09 02:33:29;;;;;;;25.50;16.60;;;;;;;-0.60;85.74;96395.78;6350234;28;20208;-69
2021/12/09 02:36:36;;;;;;;23.87;16.03;;;;;;;-0.63;85.56;96389.94;6352640;27;20318;-68
2021/12/09 02:39:38;;;;;;;22.30;15.60;;;;;;;-0.65;85.83;96381.41;6390012;27;20188;-68
2021/12/09 02:42:41;;;;;;;25.40;17.43;;;;;;;-0.66;85.82;96382.34;6373536;27;20189;-68
2021/12/09 02:45:51;;;;;;;27.27;17.33;;;;;;;-0.68;85.92;96392.78;6355473;27;20188;-68
2021/12/09 02:48:55;;;;;;;28.77;20.13;;;;;;;-0.68;86.21;96394.53;6355339;27;20204;-69
2021/12/09 02:51:59;;;;;;;30.93;21.23;;;;;;;-0.71;86.10;96398.16;6354694;27;20231;-68
2021/12/09 02:55:02;;;;;;;30.33;19.60;;;;;;;-0.71;86.29;96402.50;6373625;27;20193;-68
2021/12/09 02:58:05;;;;;;;30.97;20.93;;;;;;;-0.75;86.21;96404.41;6354790;27;20204;-69
2021/12/09 03:01:14;;;;;;;29.47;20.53;;;;;;;-0.79;86.62;96408.91;6354338;27;20192;-68
2021/12/09 03:04:16;;;;;;;32.77;20.40;;;;;;;-0.84;86.87;96413.53;6373291;27;20189;-68
2021/12/09 03:07:33;;;;;;;27.60;19.13;;;;;;;-0.85;86.91;96413.63;6377293;27;20188;-68
2021/12/09 03:10:35;;;;;;;30.27;20.47;;;;;;;-0.84;86.99;96410.13;6372630;27;20220;-68
2021/12/09 03:13:39;;;;;;;27.27;18.27;;;;;;;-0.82;87.22;96419.47;6372657;27;20228;-68
2021/12/09 03:16:41;;;;;;;25.53;17.10;;;;;;;-0.82;86.86;96414.28;6373162;27;20220;-68
2021/12/09 03:19:44;;;;;;;29.47;18.80;;;;;;;-0.85;87.04;96422.22;6353868;27;20204;-69
2021/12/09 03:22:48;;;;;;;27.27;19.17;;;;;;;-0.87;87.11;96426.66;6354321;27;20204;-67
2021/12/09 03:25:50;;;;;;;27.10;17.90;;;;;;;-0.88;86.96;96419.78;6372918;27;20196;-66
2021/12/09 03:28:53;;;;;;;28.67;18.77;;;;;;;-0.89;87.28;96415.53;6354404;27;20196;-68
2021/12/09 03:31:59;;;;;;;28.10;17.43;;;;;;;-0.89;87.03;96425.88;6353352;27;20208;-68
2021/12/09 03:35:02;;;;;;;27.80;17.80;;;;;;;-0.90;87.21;96426.81;6372984;27;20667;-67
2021/12/09 03:38:05;;;;;;;25.53;16.40;;;;;;;-0.89;87.23;96432.81;6376322;27;20181;-67
2021/12/09 03:41:07;;;;;;;24.80;16.37;;;;;;;-0.88;87.17;96435.34;6372143;27;20220;-67
2021/12/09 03:44:10;;;;;;;25.13;16.90;;;;;;;-0.89;87.01;96441.44;6371986;27;20196;-67
2021/12/09 03:47:15;;;;;;;25.20;16.27;;;;;;;-0.90;87.28;96450.09;6336632;27;20651;-68
2021/12/09 03:50:17;;;;;;;22.17;15.07;;;;;;;-0.91;87.27;96455.41;6371918;27;20659;-66
2021/12/09 03:53:20;;;;;;;22.20;15.23;;;;;;;-0.91;87.25;96458.81;6371953;27;20212;-67
2021/12/09 03:56:22;;;;;;;20.43;15.53;;;;;;;-0.93;87.11;96460.66;6353609;27;20189;-67
2021/12/09 03:59:24;;;;;;;24.57;15.50;;;;;;;-0.96;87.18;96466.00;6371654;27;20196;-67
2021/12/09 04:02:26;;;;;;;22.70;15.37;;;;;;;-0.94;87.19;96464.16;6371586;27;20192;-67
2021/12/09 04:05:28;;;;;;;23.43;15.77;;;;;;;-0.96;87.30;96465.16;6371892;27;20201;-66
2021/12/09 04:08:30;;;;;;;23.97;15.57;;;;;;;-0.99;87.15;96473.91;6385919;27;20183;-66
2021/12/09 04:11:33;;;;;;;24.10;16.27;;;;;;;-1.02;87.25;96457.72;6352242;27;20828;-66
2021/12/09 04:14:36;;;;;;;25.40;16.37;;;;;;;-1.04;87.26;96462.16;6371627;27;20815;-68
2021/12/09 04:17:38;;;;;;;21.40;14.33;;;;;;;-1.03;87.18;96461.25;6371487;27;20192;-66
2021/12/09 04:20:40;;;;;;;26.10;16.40;;;;;;;-1.05;87.56;96460.47;6371842;27;20659;-66
2021/12/09 04:23:42;;;;;;;24.33;15.87;;;;;;;-1.03;87.22;96469.84;6371326;27;20192;-66
2021/12/09 04:26:49;;;;;;;21.23;15.47;;;;;;;-1.02;87.35;96466.34;6371377;27;20197;-65
2021/12/09 04:29:53;;;;;;;22.23;14.70;;;;;;;-1.03;87.13;96461.25;6370961;27;20678;-66
2021/12/09 04:32:57;;;;;;;20.23;12.70;;;;;;;-1.01;87.34;96473.19;6370870;27;20576;-66
2021/12/09 04:35:59;;;;;;;18.07;12.63;;;;;;;-0.99;87.51;96454.97;6370820;27;20671;-68
2021/12/09 04:39:03;;;;;;;20.73;14.27;;;;;;;-1.00;87.20;96446.38;6371694;27;20260;-65
2021/12/09 04:42:06;;;;;;;18.47;11.60;;;;;;;-1.00;87.37;96461.91;6373792;27;20684;-65
2021/12/09 04:45:10;;;;;;;23.33;16.07;;;;;;;-1.04;87.50;96468.16;6371233;27;20662;-66
2021/12/09 04:48:13;;;;;;;22.87;15.60;;;;;;;-1.05;87.51;96479.44;6352366;27;20195;-65
2021/12/09 04:51:15;;;;;;;23.93;15.17;;;;;;;-1.07;87.27;96481.25;6370104;27;20610;-68
2021/12/09 04:54:17;;;;;;;23.80;15.20;;;;;;;-1.04;87.44;96488.88;6370534;27;20200;-65
2021/12/09 04:57:19;;;;;;;27.07;16.53;;;;;;;-1.05;87.79;96487.19;6347022;27;20201;-65
2021/12/09 05:00:24;;;;;;;26.67;18.00;;;;;;;-1.10;87.19;96491.81;6345600;27;20189;-65
2021/12/09 05:03:26;;;;;;;26.60;17.23;;;;;;;-1.07;87.30;96493.38;6370153;27;20198;-67
2021/12/09 05:06:29;;;;;;;26.80;17.67;;;;;;;-1.09;87.15;96462.38;6370655;27;20659;-65
2021/12/09 05:09:37;;;;;;;26.33;17.37;;;;;;;-1.12;87.02;96455.63;6371917;27;20681;-65
2021/12/09 05:12:39;;;;;;;30.13;18.43;;;;;;;-1.11;87.43;96451.31;6370017;27;20229;-67
2021/12/09 05:15:42;;;;;;;31.23;19.67;;;;;;;-1.12;87.68;96466.00;6369948;27;20192;-65
2021/12/09 05:18:45;;;;;;;32.83;20.57;;;;;;;-1.11;87.28;96477.19;6370235;27;20266;-67
2021/12/09 05:21:47;;;;;;;33.53;21.37;;;;;;;-1.15;87.42;96483.44;6334147;27;20196;-66
2021/12/09 05:24:50;;;;;;;31.43;20.50;;;;;;;-1.15;87.18;96481.69;6370123;27;20592;-65
2021/12/09 05:27:53;;;;;;;32.23;21.07;;;;;;;-1.12;87.25;96478.09;6351717;27;20664;-66
2021/12/09 05:34:18;;;;;;;30.07;20.30;;;;;;;-1.09;87.06;96490.03;6369535;27;20189;-65
2021/12/09 05:37:25;;;;;;;31.67;20.63;;;;;;;-1.10;87.07;96467.66;6374448;27;20192;-65
2021/12/09 05:40:28;;;;;;;29.67;18.97;;;;;;;-1.10;87.35;96478.84;6374259;27;20192;-65
2021/12/09 05:43:30;;;;;;;29.43;18.60;;;;;;;-1.07;87.39;96473.50;6369038;27;20683;-67
2021/12/09 05:46:34;;;;;;;26.87;17.87;;;;;;;-1.03;87.01;96487.13;6369924;27;20197;-67
2021/12/09 05:49:38;;;;;;;31.07;18.10;;;;;;;-1.03;87.11;96492.31;6369230;27;20189;-67
2021/12/09 05:52:40;;;;;;;28.00;19.13;;;;;;;-1.03;87.27;96479.34;6368938;27;20676;-65
2021/12/09 05:55:47;;;;;;;30.67;19.03;;;;;;;-1.03;86.97;96481.94;6350759;27;20204;-65
2021/12/09 05:58:50;;;;;;;31.67;18.77;;;;;;;-1.06;87.01;96477.75;6350867;27;20280;-65
2021/12/09 06:01:52;;;;;;;30.10;18.27;;;;;;;-1.07;87.31;96478.69;6368615;27;20229;-65
2021/12/09 06:04:54;;;;;;;30.00;18.87;;;;;;;-1.06;87.32;96485.53;6368952;27;20200;-65
2021/12/09 06:07:56;;;;;;;27.97;17.97;;;;;;;-1.06;87.26;96490.72;6378168;27;20199;-65
2021/12/09 06:11:00;;;;;;;23.00;15.77;;;;;;;-1.04;87.22;96493.22;6378618;27;20654;-64
2021/12/09 06:14:02;;;;;;;24.67;16.07;;;;;;;-1.03;87.13;96481.94;6368866;27;20220;-65
2021/12/09 06:17:04;;;;;;;28.80;16.47;;;;;;;-1.04;87.34;96493.22;6369206;28;20701;-64
2021/12/09 06:20:08;;;;;;;24.33;16.23;;;;;;;-1.03;87.16;96495.72;6368318;28;20210;-65
2021/12/09 06:23:10;;;;;;;26.40;16.43;;;;;;;-1.02;87.13;96505.16;6350507;28;20271;-65
2021/12/09 06:26:12;;;;;;;23.57;15.07;;;;;;;-1.00;87.25;96518.88;6368997;28;20188;-65
2021/12/09 06:29:14;;;;;;;26.27;17.00;;;;;;;-1.02;87.30;96505.16;6368560;28;20671;-65
2021/12/09 06:32:16;;;;;;;21.53;14.60;;;;;;;-1.03;87.41;96508.69;6368426;28;20730;-67
2021/12/09 06:35:19;;;;;;;23.03;14.93;;;;;;;-1.02;87.41;96525.88;6350322;28;20196;-65
2021/12/09 06:38:21;;;;;;;22.73;14.80;;;;;;;-0.99;87.15;96507.56;6381818;27;20202;-66
2021/12/09 06:41:23;;;;;;;21.47;14.03;;;;;;;-1.02;87.11;96525.03;6377721;27;20188;-65
2021/12/09 06:44:25;;;;;;;21.77;14.60;;;;;;;-1.01;87.41;96519.78;6368573;28;20644;-65
2021/12/09 06:47:27;;;;;;;19.40;13.40;;;;;;;-0.99;87.21;96538.63;6368651;28;20744;-65
2021/12/09 06:50:30;;;;;;;19.90;13.40;;;;;;;-0.96;87.45;96522.13;6368328;28;20191;-65
2021/12/09 06:53:33;;;;;;;20.77;13.47;;;;;;;-0.96;87.26;96533.31;6367955;28;20245;-65
2021/12/09 06:56:35;;;;;;;20.80;13.60;;;;;;;-0.93;87.05;96534.91;6369351;28;20597;-65
2021/12/09 06:59:37;;;;;;;20.63;14.00;;;;;;;-0.90;87.69;96543.34;6368653;28;20200;-65
2021/12/09 07:02:40;;;;;;;21.00;13.53;;;;;;;-0.87;87.20;96545.78;6368096;28;20314;-65
2021/12/09 07:05:44;;;;;;;20.37;14.13;;;;;;;-0.83;87.28;96549.88;6368092;28;20202;-65
2021/12/09 07:08:49;;;;;;;20.70;13.07;;;;;;;-0.82;87.27;96538.59;6375374;27;20199;-65
2021/12/09 07:11:52;;;;;;;18.10;12.20;;;;;;;-0.79;87.10;96546.19;6367732;28;20703;-65
2021/12/09 07:14:54;;;;;;;22.03;14.40;;;;;;;-0.75;87.08;96536.50;6368283;28;20304;-65
2021/12/09 07:17:56;;;;;;;16.60;12.37;;;;;;;-0.73;86.94;96523.47;6368369;28;20191;-65
2021/12/09 07:20:58;;;;;;;19.67;12.57;;;;;;;-0.76;87.19;96522.72;6367527;27;20191;-65
2021/12/09 07:24:01;;;;;;;16.03;11.70;;;;;;;-0.69;86.99;96525.81;6372713;27;20196;-64
2021/12/09 07:27:03;;;;;;;16.13;12.23;;;;;;;-0.62;87.19;96523.75;6372934;27;20189;-65
2021/12/09 07:30:07;;;;;;;17.63;12.37;;;;;;;-0.56;87.39;96524.22;6372326;27;20192;-65
2021/12/09 07:33:09;;;;;;;16.60;11.87;;;;;;;-0.50;86.97;96517.91;6372429;27;20237;-65
2021/12/09 07:36:11;;;;;;;15.23;11.70;;;;;;;-0.45;86.90;96537.44;6372156;27;20199;-65
2021/12/09 07:39:14;;;;;;;16.23;11.93;;;;;;;-0.38;87.04;96543.09;6388157;27;20676;-65
2021/12/09 07:42:17;;;;;;;15.87;12.20;;;;;;;-0.41;86.92;96540.72;6372176;27;20237;-65
2021/12/09 07:45:20;;;;;;;16.50;11.90;;;;;;;-0.40;86.64;96560.53;6372514;27;20660;-65
2021/12/09 07:48:22;;;;;;;16.17;11.60;;;;;;;-0.39;86.41;96518.09;6372046;27;20621;-65
2021/12/09 07:51:25;;;;;;;14.53;10.60;;;;;;;-0.34;86.65;96551.56;6371661;27;20805;-70
2021/12/09 07:54:27;;;;;;;13.47;10.10;;;;;;;-0.31;86.49;96562.59;6371995;27;20342;-66
2021/12/09 07:57:31;;;;;;;16.83;11.23;;;;;;;-0.29;86.22;96560.75;6372065;27;20536;-66
2021/12/09 08:00:33;;;;;;;18.73;12.00;;;;;;;-0.30;86.47;96566.03;6372099;27;20686;-66
2021/12/09 08:03:36;;;;;;;17.70;12.07;;;;;;;-0.32;86.22;96562.69;6371400;27;20652;-66
2021/12/09 08:06:40;;;;;;;17.97;11.87;;;;;;;-0.32;86.12;96576.47;6371928;27;20193;-65
2021/12/09 08:09:42;;;;;;;15.47;11.37;;;;;;;-0.32;85.70;96567.88;6396502;27;20215;-72
2021/12/09 08:12:44;;;;;;;15.43;10.87;;;;;;;-0.28;85.64;96556.41;6345938;28;20614;-65
2021/12/09 08:16:01;;;;;;;16.53;11.17;;;;;;;-0.25;86.12;96561.41;6370341;27;20215;-65
2021/12/09 08:19:09;;;;;;;18.47;11.80;;;;;;;-0.20;85.85;96574.97;6371376;27;20192;-65
2021/12/09 08:22:14;;;;;;;14.00;10.43;;;;;;;-0.13;85.76;96582.31;6371153;27;20732;-65
2021/12/09 08:25:16;;;;;;;14.53;10.60;;;;;;;-0.10;85.26;96566.56;6371217;27;20276;-65
2021/12/09 08:28:18;;;;;;;13.10;10.10;;;;;;;-0.08;85.65;96556.97;6372016;27;20676;-65
2021/12/09 08:31:21;;;;;;;14.60;10.97;;;;;;;0.01;85.24;96560.78;6370697;27;20238;-65
2021/12/09 08:34:22;;;;;;;15.30;9.97;;;;;;;0.15;85.39;96557.44;6370886;27;20683;-64
2021/12/09 08:37:30;;;;;;;13.67;9.97;;;;;;;0.19;84.92;96543.38;6375395;27;20196;-64
2021/12/09 08:40:32;;;;;;;11.10;7.97;;;;;;;0.20;84.76;96534.66;6370732;27;20616;-64
2021/12/09 08:43:35;;;;;;;9.07;7.20;;;;;;;0.20;84.56;96535.47;6370633;27;20677;-64
2021/12/09 08:46:43;;;;;;;11.53;8.30;;;;;;;0.22;84.78;96541.41;6370607;27;20559;-64
2021/12/09 08:49:45;;;;;;;9.60;7.43;;;;;;;0.27;85.07;96534.22;6370667;27;20197;-64
2021/12/09 08:52:50;;;;;;;11.63;8.40;;;;;;;0.30;85.07;96544.41;6370484;27;20208;-64
2021/12/09 08:55:53;;;;;;;10.73;8.10;;;;;;;0.36;84.52;96571.75;6370288;27;20222;-64
2021/12/09 08:58:55;;;;;;;9.23;6.80;;;;;;;0.45;84.08;96576.41;6370388;27;20563;-64
2021/12/09 09:01:58;;;;;;;10.60;7.57;;;;;;;0.53;84.18;96605.34;6370006;27;20189;-64
2021/12/09 09:05:00;;;;;;;13.77;9.03;;;;;;;0.46;83.61;96591.06;6370552;27;20192;-64
2021/12/09 09:08:04;;;;;;;12.23;9.00;;;;;;;0.44;83.35;96587.72;6380615;27;20204;-64
2021/12/09 09:11:06;;;;;;;11.83;8.00;;;;;;;0.42;83.61;96565.38;6371142;27;20227;-64
2021/12/09 09:14:09;;;;;;;14.20;9.70;;;;;;;0.46;83.46;96549.53;6369804;27;20667;-63
2021/12/09 09:17:11;;;;;;;13.73;9.57;;;;;;;0.34;83.36;96543.31;6369877;27;20188;-64
2021/12/09 09:20:17;;;;;;;13.77;9.33;;;;;;;0.35;83.42;96557.13;6369768;27;20216;-64
2021/12/09 09:23:22;;;;;;;10.70;8.13;;;;;;;0.38;83.36;96549.16;6369909;27;20586;-63
2021/12/09 09:26:25;;;;;;;11.53;8.67;;;;;;;0.41;83.07;96548.97;6369463;27;20667;-64
2021/12/09 09:29:28;;;;;;;10.80;8.17;;;;;;;0.44;83.16;96541.00;6369759;27;20197;-64
2021/12/09 09:32:30;;;;;;;11.10;9.13;;;;;;;0.53;82.68;96544.81;6369272;27;20215;-64
2021/12/09 09:35:34;;;;;;;11.30;7.83;;;;;;;0.54;82.77;96551.69;6369521;27;20193;-64
2021/12/09 09:38:36;;;;;;;11.03;8.20;;;;;;;0.56;82.82;96552.44;6384775;27;20199;-70
2021/12/09 09:41:38;;;;;;;9.83;7.07;;;;;;;0.56;82.81;96557.63;6375627;27;20196;-64
2021/12/09 09:44:48;;;;;;;11.63;8.30;;;;;;;0.55;82.49;96558.56;6369232;27;20700;-64
2021/12/09 09:47:51;;;;;;;10.30;7.93;;;;;;;0.54;82.85;96560.31;6369172;27;20185;-64
2021/12/09 09:50:54;;;;;;;12.77;9.03;;;;;;;0.52;82.91;96549.19;6369344;27;20271;-64
2021/12/09 09:53:57;;;;;;;11.03;8.60;;;;;;;0.44;83.33;96543.59;6369110;27;20287;-64
2021/12/09 09:56:59;;;;;;;13.80;9.73;;;;;;;0.35;83.01;96539.78;6369344;27;20193;-64
2021/12/09 10:00:06;;;;;;;13.20;8.30;;;;;;;0.27;83.09;96530.78;6369222;27;20692;-64
2021/12/09 10:03:16;;;;;;;12.00;8.40;;;;;;;0.20;82.53;96521.69;6369145;27;20511;-65
2021/12/09 10:06:19;;;;;;;10.60;8.13;;;;;;;0.23;82.73;96524.94;6368913;27;20197;-64
2021/12/09 10:09:21;;;;;;;11.67;8.47;;;;;;;0.38;82.74;96519.78;6370030;27;20189;-64
2021/12/09 10:12:24;;;;;;;10.90;8.50;;;;;;;0.39;81.55;96516.25;6368588;27;20595;-64
2021/12/09 10:15:50;;;;;;;10.30;7.43;;;;;;;0.33;81.97;96523.47;6368656;27;20694;-64
2021/12/09 10:18:54;;;;;;;9.80;7.40;;;;;;;0.43;81.86;96530.72;6368668;28;20573;-64
2021/12/09 10:22:11;;;;;;;8.13;6.90;;;;;;;0.51;81.77;96518.97;6368645;28;20716;-64
2021/12/09 10:25:19;;;;;;;10.27;7.47;;;;;;;0.57;81.88;96516.00;6369040;28;20203;-64
2021/12/09 10:28:25;;;;;;;9.63;7.30;;;;;;;0.54;81.71;96518.78;6368505;28;20208;-64
2021/12/09 10:31:35;;;;;;;10.07;7.90;;;;;;;0.60;81.38;96522.78;6368394;28;20189;-64
2021/12/09 10:34:46;;;;;;;10.07;7.40;;;;;;;0.67;81.26;96519.72;6369666;28;20201;-64
2021/12/09 10:37:50;;;;;;;10.93;7.70;;;;;;;0.70;81.62;96524.72;6377109;27;20643;-64
2021/12/09 10:40:52;;;;;;;12.40;8.27;;;;;;;0.70;81.17;96523.88;6368750;27;20885;-64
2021/12/09 10:43:54;;;;;;;10.63;7.67;;;;;;;0.68;81.11;96518.81;6368366;28;20189;-64
2021/12/09 10:47:06;;;;;;;11.27;8.10;;;;;;;0.68;81.65;96524.00;6368365;28;20590;-65
2021/12/09 10:53:47;;;;;;;9.40;7.40;;;;;;;0.80;81.21;96506.81;6368034;28;20789;-64
2021/12/09 10:56:49;;;;;;;10.77;7.47;;;;;;;0.82;81.45;96515.38;6369491;27;20189;-64
2021/12/09 10:59:52;;;;;;;10.77;7.57;;;;;;;0.86;81.44;96498.69;6373448;27;20668;-63
2021/12/09 11:03:16;;;;;;;9.47;6.73;;;;;;;0.93;80.94;96497.38;6373014;27;20248;-63
2021/12/09 11:06:29;;;;;;;8.73;6.67;;;;;;;0.92;80.99;96493.09;6373473;27;20228;-65
2021/12/09 11:09:31;;;;;;;9.70;7.40;;;;;;;0.75;80.77;96493.31;6391877;27;20192;-64
2021/12/09 11:12:33;;;;;;;9.80;7.23;;;;;;;0.62;81.41;96500.16;6372861;27;20235;-64
2021/12/09 11:15:46;;;;;;;10.57;8.37;;;;;;;0.54;81.42;96499.78;6372970;27;20212;-63
2021/12/09 11:18:49;;;;;;;9.83;7.17;;;;;;;0.53;81.19;96491.16;6372638;27;20209;-64
2021/12/09 11:21:59;;;;;;;9.23;7.10;;;;;;;0.52;81.50;96488.66;6372450;27;20289;-64
2021/12/09 11:25:04;;;;;;;11.33;8.33;;;;;;;0.44;80.99;96496.06;6372969;27;20683;-64
2021/12/09 11:28:11;;;;;;;11.10;8.43;;;;;;;0.36;81.15;96496.50;6353861;27;20668;-64
2021/12/09 11:31:17;;;;;;;9.50;7.57;;;;;;;0.33;81.68;96492.34;6372314;27;20201;-64
2021/12/09 11:34:24;;;;;;;11.90;8.70;;;;;;;0.29;81.73;96503.84;6372464;27;20231;-64
2021/12/09 11:40:40;;;;;;;11.83;7.87;;;;;;;0.32;81.41;96513.19;6371394;27;20652;-66
2021/12/09 11:43:42;;;;;;;12.00;8.80;;;;;;;0.38;81.43;96499.03;6372369;27;20204;-66
2021/12/09 11:46:46;;;;;;;12.20;8.80;;;;;;;0.46;81.27;96509.78;6372179;27;20219;-66
2021/12/09 11:49:51;;;;;;;11.83;8.07;;;;;;;0.52;81.44;96499.88;6371956;27;20224;-64
2021/12/09 11:52:56;;;;;;;12.33;8.20;;;;;;;0.58;81.36;96502.13;6353644;27;20199;-60
2021/12/09 11:56:07;;;;;;;10.07;7.40;;;;;;;0.61;80.72;96509.69;6371895;27;20502;-62
2021/12/09 11:59:27;;;;;;;10.40;7.80;;;;;;;0.65;80.98;96502.56;6338126;27;20779;-62
2021/12/09 12:13:10;;;;;;;10.47;7.27;;;;;;;0.84;80.31;96500.53;6370511;27;20228;-62
2021/12/09 12:16:48;;;;;;;11.20;8.20;;;;;;;0.81;80.20;96487.72;6371156;27;20192;-62
2021/12/09 12:20:09;;;;;;;12.77;8.47;;;;;;;0.73;80.55;96488.19;6371354;27;20196;-62
2021/12/09 12:27:16;;;;;;;10.60;8.40;;;;;;;0.68;79.98;96468.66;6371565;27;20325;-61
2021/12/09 12:30:40;;;;;;;12.73;8.70;;;;;;;0.64;80.33;96475.78;6370780;27;20239;-61
2021/12/09 12:41:08;;;;;;;12.90;8.40;;;;;;;0.67;79.94;96477.34;6376945;27;20702;-61
2021/12/09 12:44:13;;;;;;;9.97;7.70;;;;;;;0.61;80.64;96472.53;6352784;27;20653;-61
2021/12/09 12:47:27;;;;;;;10.20;6.70;;;;;;;0.56;80.82;96478.00;6371502;27;20185;-61
2021/12/09 12:50:30;;;;;;;12.67;7.77;;;;;;;0.57;80.90;96484.88;6370657;27;20690;-61
2021/12/09 12:53:41;;;;;;;12.83;8.90;;;;;;;0.56;80.41;96484.94;6370340;27;20249;-61
2021/12/09 12:56:56;;;;;;;9.77;7.23;;;;;;;0.48;81.04;96480.22;6371046;27;20368;-61
2021/12/09 13:00:13;;;;;;;10.47;7.13;;;;;;;0.42;81.05;96488.34;6370319;27;20573;-61
2021/12/09 13:03:31;;;;;;;10.50;7.83;;;;;;;0.35;80.49;96497.44;6352259;27;20200;-61
2021/12/09 13:06:52;;;;;;;9.93;7.00;;;;;;;0.26;80.62;96503.16;6370477;27;20264;-62
2021/12/09 13:10:25;;;;;;;9.10;6.77;;;;;;;0.20;81.18;96499.16;6370047;27;20298;-62
2021/12/09 13:14:16;;;;;;;8.47;6.70;;;;;;;0.23;81.08;96485.19;6369641;27;20232;-62
2021/12/09 13:17:15;;;;;;;9.00;6.73;;;;;;;0.15;81.40;96487.38;6367512;27;20208;-61
2021/12/09 13:20:31;;;;;;;9.30;6.83;;;;;;;0.11;81.42;96484.13;6368830;27;20266;-62
2021/12/09 13:23:33;;;;;;;10.43;7.00;;;;;;;0.05;82.04;96474.13;6370035;27;20180;-72
2021/12/09 13:26:37;;;;;;;9.83;7.50;;;;;;;0.05;81.69;96481.91;6370613;27;20201;-63
2021/12/09 13:29:57;;;;;;;9.27;6.67;;;;;;;0.07;81.90;96490.44;6351841;27;20197;-64
2021/12/09 13:36:40;;;;;;;8.23;6.17;;;;;;;0.11;82.05;96489.31;6369946;27;20189;-62
2021/12/09 13:40:16;;;;;;;8.03;6.10;;;;;;;0.08;82.08;96480.91;6373505;27;20639;-62
2021/12/09 13:47:18;;;;;;;10.83;7.40;;;;;;;0.00;82.55;96483.94;6291639;28;20214;-62
2021/12/09 13:50:47;;;;;;;9.77;7.00;;;;;;;-0.03;82.74;96479.75;6369586;27;20597;-62
2021/12/09 13:54:18;;;;;;;8.60;6.40;;;;;;;-0.04;83.03;96478.09;6369162;27;20203;-62
2021/12/09 13:57:38;;;;;;;10.57;7.83;;;;;;;-0.10;82.97;96487.97;6369338;27;20261;-62
2021/12/09 14:00:46;;;;;;;11.30;8.27;;;;;;;-0.13;83.38;96488.16;6350536;27;20265;-64
2021/12/09 14:03:48;;;;;;;13.23;9.20;;;;;;;-0.11;83.43;96484.56;6369143;27;20280;-64
2021/12/09 14:07:04;;;;;;;12.07;8.37;;;;;;;-0.05;83.18;96483.34;6368776;27;20196;-64
2021/12/09 14:10:13;;;;;;;15.43;10.57;;;;;;;-0.04;83.36;96491.03;6379067;27;20212;-64
2021/12/09 14:13:19;;;;;;;13.43;9.60;;;;;;;-0.08;83.54;96497.31;6350324;27;20225;-72
2021/12/09 14:20:06;;;;;;;12.67;7.90;;;;;;;-0.12;83.98;96498.44;6368785;28;20193;-65
2021/12/09 14:23:09;;;;;;;19.77;14.07;;;;;;;-0.15;83.52;96500.34;6368289;28;20188;-65
2021/12/09 14:26:11;;;;;;;21.93;14.50;;;;;;;-0.18;84.10;96496.16;6350593;28;20652;-65
2021/12/09 14:29:14;;;;;;;21.17;15.20;;;;;;;-0.23;84.18;96500.78;6368992;28;20352;-65
2021/12/09 14:32:18;;;;;;;22.07;14.80;;;;;;;-0.26;83.99;96502.72;6371747;27;20188;-65
2021/12/09 14:35:24;;;;;;;23.60;15.37;;;;;;;-0.30;84.45;96504.63;6374290;27;20373;-67
2021/12/09 14:38:26;;;;;;;23.73;15.93;;;;;;;-0.33;83.96;96507.41;6388156;27;20674;-65
2021/12/09 14:41:29;;;;;;;23.87;15.80;;;;;;;-0.37;84.36;96503.31;6380212;27;20192;-67
2021/12/09 14:44:32;;;;;;;22.30;14.63;;;;;;;-0.38;84.63;96512.00;6374398;27;20330;-65
2021/12/09 14:47:34;;;;;;;21.37;13.93;;;;;;;-0.39;84.83;96510.34;6373864;27;20257;-65
2021/12/09 14:50:44;;;;;;;21.80;14.50;;;;;;;-0.41;84.28;96515.63;6355397;27;20188;-64
2021/12/09 14:54:00;;;;;;;23.10;15.37;;;;;;;-0.46;84.54;96511.59;6373822;27;20213;-64
2021/12/09 14:57:10;;;;;;;21.83;14.27;;;;;;;-0.48;84.83;96514.28;6373077;27;20191;-67
2021/12/09 15:00:12;;;;;;;22.47;15.07;;;;;;;-0.54;84.39;96521.56;6372663;27;20169;-64
2021/12/09 15:03:28;;;;;;;22.23;14.87;;;;;;;-0.55;85.25;96512.94;6372949;27;20188;-64
2021/12/09 15:06:36;;;;;;;26.30;14.27;;;;;;;-0.58;84.77;96513.09;6372345;27;20177;-65